sensor_id;sensor_type;location;lat;lon;timestamp;P1;durP1;ratioP1;P2;durP2;ratioP2
71896;SDS011;59767;51.344;12.362;2023-06-22T00:02:50;14.07;;;7.90;;
71896;SDS011;59767;51.344;12.362;2023-06-22T00:05:55;13.10;;;7.80;;
71896;SDS011;59767;51.344;12.362;2023-06-22T00:08:59;12.60;;;8.15;;
71896;SDS011;59767;51.344;12.362;2023-06-22T00:12:04;11.90;;;7.90;;
71896;SDS011;59767;51.344;12.362;2023-06-22T00:15:09;12.68;;;8.02;;
71896;SDS011;59767;51.344;12.362;2023-06-22T00:18:13;12.13;;;8.20;;
71896;SDS011;59767;51.344;12.362;2023-06-22T00:21:17;16.42;;;8.35;;
71896;SDS011;59767;51.344;12.362;2023-06-22T00:24:24;16.42;;;8.32;;
71896;SDS011;59767;51.344;12.362;2023-06-22T00:27:28;13.82;;;8.43;;
71896;SDS011;59767;51.344;12.362;2023-06-22T00:30:33;13.82;;;8.50;;
71896;SDS011;59767;51.344;12.362;2023-06-22T00:33:37;15.52;;;7.90;;
71896;SDS011;59767;51.344;12.362;2023-06-22T00:36:42;12.13;;;7.72;;
71896;SDS011;59767;51.344;12.362;2023-06-22T00:39:46;14.82;;;8.00;;
71896;SDS011;59767;51.344;12.362;2023-06-22T00:42:50;15.00;;;8.70;;
71896;SDS011;59767;51.344;12.362;2023-06-22T00:45:55;16.83;;;8.27;;
71896;SDS011;59767;51.344;12.362;2023-06-22T00:49:00;14.85;;;8.65;;
71896;SDS011;59767;51.344;12.362;2023-06-22T00:52:05;15.48;;;8.02;;
71896;SDS011;59767;51.344;12.362;2023-06-22T00:55:13;12.80;;;7.93;;
71896;SDS011;59767;51.344;12.362;2023-06-22T00:58:21;12.63;;;8.15;;
71896;SDS011;59767;51.344;12.362;2023-06-22T01:01:25;12.07;;;8.35;;
71896;SDS011;59767;51.344;12.362;2023-06-22T01:04:37;12.85;;;8.20;;
71896;SDS011;59767;51.344;12.362;2023-06-22T01:07:43;14.93;;;8.13;;
71896;SDS011;59767;51.344;12.362;2023-06-22T01:11:10;11.65;;;8.15;;
71896;SDS011;59767;51.344;12.362;2023-06-22T01:14:25;16.10;;;8.68;;
71896;SDS011;59767;51.344;12.362;2023-06-22T01:17:40;13.63;;;8.40;;
71896;SDS011;59767;51.344;12.362;2023-06-22T01:20:47;12.10;;;8.40;;
71896;SDS011;59767;51.344;12.362;2023-06-22T01:23:53;13.50;;;8.80;;
71896;SDS011;59767;51.344;12.362;2023-06-22T01:27:36;13.07;;;8.50;;
71896;SDS011;59767;51.344;12.362;2023-06-22T01:30:45;14.80;;;8.18;;
71896;SDS011;59767;51.344;12.362;2023-06-22T01:33:57;13.15;;;8.27;;
71896;SDS011;59767;51.344;12.362;2023-06-22T01:37:04;12.70;;;8.13;;
71896;SDS011;59767;51.344;12.362;2023-06-22T01:40:08;13.25;;;8.45;;
71896;SDS011;59767;51.344;12.362;2023-06-22T01:43:13;14.73;;;8.27;;
71896;SDS011;59767;51.344;12.362;2023-06-22T01:46:18;13.55;;;8.55;;
71896;SDS011;59767;51.344;12.362;2023-06-22T01:49:26;12.38;;;8.55;;
71896;SDS011;59767;51.344;12.362;2023-06-22T01:52:30;16.17;;;8.75;;
71896;SDS011;59767;51.344;12.362;2023-06-22T01:55:34;12.35;;;8.75;;
71896;SDS011;59767;51.344;12.362;2023-06-22T01:58:49;14.75;;;9.98;;
71896;SDS011;59767;51.344;12.362;2023-06-22T02:02:09;15.02;;;9.15;;
71896;SDS011;59767;51.344;12.362;2023-06-22T02:05:16;14.75;;;9.20;;
71896;SDS011;59767;51.344;12.362;2023-06-22T02:08:22;12.95;;;9.52;;
71896;SDS011;59767;51.344;12.362;2023-06-22T02:11:33;16.15;;;10.65;;
71896;SDS011;59767;51.344;12.362;2023-06-22T02:14:38;16.50;;;10.57;;
71896;SDS011;59767;51.344;12.362;2023-06-22T02:17:43;14.60;;;9.40;;
71896;SDS011;59767;51.344;12.362;2023-06-22T02:20:49;14.45;;;9.63;;
71896;SDS011;59767;51.344;12.362;2023-06-22T02:23:53;12.82;;;8.85;;
71896;SDS011;59767;51.344;12.362;2023-06-22T02:26:57;14.75;;;9.38;;
71896;SDS011;59767;51.344;12.362;2023-06-22T02:30:02;13.55;;;8.98;;
71896;SDS011;59767;51.344;12.362;2023-06-22T02:33:06;16.85;;;9.52;;
71896;SDS011;59767;51.344;12.362;2023-06-22T02:36:11;15.05;;;10.02;;
71896;SDS011;59767;51.344;12.362;2023-06-22T02:39:20;13.23;;;8.95;;
71896;SDS011;59767;51.344;12.362;2023-06-22T02:42:26;14.80;;;9.75;;
71896;SDS011;59767;51.344;12.362;2023-06-22T02:45:30;14.65;;;9.30;;
71896;SDS011;59767;51.344;12.362;2023-06-22T02:48:34;13.32;;;9.13;;
71896;SDS011;59767;51.344;12.362;2023-06-22T02:51:44;14.38;;;9.45;;
71896;SDS011;59767;51.344;12.362;2023-06-22T02:54:49;14.30;;;9.63;;
71896;SDS011;59767;51.344;12.362;2023-06-22T02:57:54;16.30;;;9.38;;
71896;SDS011;59767;51.344;12.362;2023-06-22T03:00:58;16.30;;;10.35;;
71896;SDS011;59767;51.344;12.362;2023-06-22T03:04:08;13.75;;;9.77;;
71896;SDS011;59767;51.344;12.362;2023-06-22T03:07:13;17.58;;;10.50;;
71896;SDS011;59767;51.344;12.362;2023-06-22T03:10:17;17.27;;;9.95;;
71896;SDS011;59767;51.344;12.362;2023-06-22T03:13:21;16.55;;;10.15;;
71896;SDS011;59767;51.344;12.362;2023-06-22T03:16:25;17.23;;;10.20;;
71896;SDS011;59767;51.344;12.362;2023-06-22T03:19:29;17.77;;;10.30;;
71896;SDS011;59767;51.344;12.362;2023-06-22T03:22:35;17.23;;;10.27;;
71896;SDS011;59767;51.344;12.362;2023-06-22T03:25:40;15.60;;;10.40;;
71896;SDS011;59767;51.344;12.362;2023-06-22T03:28:44;15.90;;;10.38;;
71896;SDS011;59767;51.344;12.362;2023-06-22T03:31:49;16.33;;;10.00;;
71896;SDS011;59767;51.344;12.362;2023-06-22T03:34:53;22.98;;;11.15;;
71896;SDS011;59767;51.344;12.362;2023-06-22T03:37:58;15.88;;;9.85;;
71896;SDS011;59767;51.344;12.362;2023-06-22T03:41:02;17.27;;;10.70;;
71896;SDS011;59767;51.344;12.362;2023-06-22T03:44:05;18.67;;;10.85;;
71896;SDS011;59767;51.344;12.362;2023-06-22T03:47:10;15.38;;;10.43;;
71896;SDS011;59767;51.344;12.362;2023-06-22T03:50:14;17.52;;;9.90;;
71896;SDS011;59767;51.344;12.362;2023-06-22T03:53:18;18.52;;;10.43;;
71896;SDS011;59767;51.344;12.362;2023-06-22T03:56:22;23.15;;;10.35;;
71896;SDS011;59767;51.344;12.362;2023-06-22T03:59:26;16.67;;;11.00;;
71896;SDS011;59767;51.344;12.362;2023-06-22T04:02:30;19.08;;;11.30;;
71896;SDS011;59767;51.344;12.362;2023-06-22T04:05:34;17.77;;;11.35;;
71896;SDS011;59767;51.344;12.362;2023-06-22T04:08:39;19.45;;;11.32;;
71896;SDS011;59767;51.344;12.362;2023-06-22T04:11:43;19.95;;;11.23;;
71896;SDS011;59767;51.344;12.362;2023-06-22T04:14:47;18.85;;;11.20;;
71896;SDS011;59767;51.344;12.362;2023-06-22T04:17:51;19.02;;;11.10;;
71896;SDS011;59767;51.344;12.362;2023-06-22T04:20:55;19.15;;;11.38;;
71896;SDS011;59767;51.344;12.362;2023-06-22T04:23:59;16.92;;;11.95;;
71896;SDS011;59767;51.344;12.362;2023-06-22T04:27:03;17.25;;;10.75;;
71896;SDS011;59767;51.344;12.362;2023-06-22T04:30:07;17.25;;;10.70;;
71896;SDS011;59767;51.344;12.362;2023-06-22T04:33:13;16.58;;;11.90;;
71896;SDS011;59767;51.344;12.362;2023-06-22T04:36:18;17.55;;;11.63;;
71896;SDS011;59767;51.344;12.362;2023-06-22T04:39:22;19.35;;;11.88;;
71896;SDS011;59767;51.344;12.362;2023-06-22T04:42:27;18.77;;;11.05;;
71896;SDS011;59767;51.344;12.362;2023-06-22T04:45:32;17.00;;;11.27;;
71896;SDS011;59767;51.344;12.362;2023-06-22T04:48:37;17.63;;;11.80;;
71896;SDS011;59767;51.344;12.362;2023-06-22T04:51:41;15.85;;;12.13;;
71896;SDS011;59767;51.344;12.362;2023-06-22T04:54:46;19.23;;;12.13;;
71896;SDS011;59767;51.344;12.362;2023-06-22T04:57:54;19.85;;;12.18;;
71896;SDS011;59767;51.344;12.362;2023-06-22T05:00:58;19.15;;;12.32;;
71896;SDS011;59767;51.344;12.362;2023-06-22T05:04:02;21.70;;;13.18;;
71896;SDS011;59767;51.344;12.362;2023-06-22T05:07:09;18.60;;;11.65;;
71896;SDS011;59767;51.344;12.362;2023-06-22T05:10:14;20.73;;;12.43;;
71896;SDS011;59767;51.344;12.362;2023-06-22T05:13:18;18.60;;;13.00;;
71896;SDS011;59767;51.344;12.362;2023-06-22T05:16:22;19.95;;;13.27;;
71896;SDS011;59767;51.344;12.362;2023-06-22T05:19:29;20.48;;;12.88;;
71896;SDS011;59767;51.344;12.362;2023-06-22T05:22:38;17.40;;;12.18;;
71896;SDS011;59767;51.344;12.362;2023-06-22T05:25:44;21.80;;;12.38;;
71896;SDS011;59767;51.344;12.362;2023-06-22T05:28:48;22.15;;;13.45;;
71896;SDS011;59767;51.344;12.362;2023-06-22T05:31:53;20.65;;;12.57;;
71896;SDS011;59767;51.344;12.362;2023-06-22T05:34:57;19.15;;;13.50;;
71896;SDS011;59767;51.344;12.362;2023-06-22T05:38:01;20.05;;;13.45;;
71896;SDS011;59767;51.344;12.362;2023-06-22T05:41:05;25.70;;;13.98;;
71896;SDS011;59767;51.344;12.362;2023-06-22T05:44:08;23.85;;;12.80;;
71896;SDS011;59767;51.344;12.362;2023-06-22T05:47:13;24.20;;;14.15;;
71896;SDS011;59767;51.344;12.362;2023-06-22T05:50:17;21.75;;;12.35;;
71896;SDS011;59767;51.344;12.362;2023-06-22T05:53:21;21.20;;;12.90;;
71896;SDS011;59767;51.344;12.362;2023-06-22T05:56:25;22.55;;;12.50;;
71896;SDS011;59767;51.344;12.362;2023-06-22T05:59:29;24.70;;;12.02;;
71896;SDS011;59767;51.344;12.362;2023-06-22T06:02:34;24.98;;;12.82;;
71896;SDS011;59767;51.344;12.362;2023-06-22T06:05:40;24.17;;;11.73;;
71896;SDS011;59767;51.344;12.362;2023-06-22T06:08:43;19.98;;;12.77;;
71896;SDS011;59767;51.344;12.362;2023-06-22T06:11:47;18.48;;;11.00;;
71896;SDS011;59767;51.344;12.362;2023-06-22T06:14:51;18.02;;;11.45;;
71896;SDS011;59767;51.344;12.362;2023-06-22T06:17:57;21.45;;;10.38;;
71896;SDS011;59767;51.344;12.362;2023-06-22T06:21:01;22.70;;;10.80;;
71896;SDS011;59767;51.344;12.362;2023-06-22T06:24:06;18.73;;;10.27;;
71896;SDS011;59767;51.344;12.362;2023-06-22T06:27:10;17.48;;;10.48;;
71896;SDS011;59767;51.344;12.362;2023-06-22T06:30:15;17.50;;;9.85;;
71896;SDS011;59767;51.344;12.362;2023-06-22T06:33:19;17.42;;;9.82;;
71896;SDS011;59767;51.344;12.362;2023-06-22T06:36:28;17.30;;;9.55;;
71896;SDS011;59767;51.344;12.362;2023-06-22T06:39:32;19.63;;;9.40;;
71896;SDS011;59767;51.344;12.362;2023-06-22T06:42:36;15.88;;;9.90;;
71896;SDS011;59767;51.344;12.362;2023-06-22T06:45:44;12.98;;;8.85;;
71896;SDS011;59767;51.344;12.362;2023-06-22T06:48:48;17.45;;;9.57;;
71896;SDS011;59767;51.344;12.362;2023-06-22T06:51:52;16.90;;;8.95;;
71896;SDS011;59767;51.344;12.362;2023-06-22T06:54:56;15.77;;;8.43;;
71896;SDS011;59767;51.344;12.362;2023-06-22T06:58:00;13.02;;;8.23;;
71896;SDS011;59767;51.344;12.362;2023-06-22T07:01:05;12.98;;;8.65;;
71896;SDS011;59767;51.344;12.362;2023-06-22T07:04:10;16.92;;;8.70;;
71896;SDS011;59767;51.344;12.362;2023-06-22T07:07:14;16.65;;;8.60;;
71896;SDS011;59767;51.344;12.362;2023-06-22T07:10:18;13.40;;;8.10;;
71896;SDS011;59767;51.344;12.362;2023-06-22T07:13:23;14.40;;;8.10;;
71896;SDS011;59767;51.344;12.362;2023-06-22T07:16:26;15.80;;;8.70;;
71896;SDS011;59767;51.344;12.362;2023-06-22T07:19:32;15.10;;;8.07;;
71896;SDS011;59767;51.344;12.362;2023-06-22T07:22:37;15.70;;;8.45;;
71896;SDS011;59767;51.344;12.362;2023-06-22T07:25:42;14.75;;;8.55;;
71896;SDS011;59767;51.344;12.362;2023-06-22T07:28:46;17.05;;;8.63;;
71896;SDS011;59767;51.344;12.362;2023-06-22T07:31:50;11.40;;;7.97;;
71896;SDS011;59767;51.344;12.362;2023-06-22T07:34:55;12.45;;;7.35;;
71896;SDS011;59767;51.344;12.362;2023-06-22T07:37:59;13.23;;;7.25;;
71896;SDS011;59767;51.344;12.362;2023-06-22T07:41:08;13.68;;;7.85;;
71896;SDS011;59767;51.344;12.362;2023-06-22T07:44:13;11.50;;;7.50;;
71896;SDS011;59767;51.344;12.362;2023-06-22T07:47:17;13.98;;;7.88;;
71896;SDS011;59767;51.344;12.362;2023-06-22T07:50:24;15.80;;;7.97;;
71896;SDS011;59767;51.344;12.362;2023-06-22T07:53:29;13.95;;;7.47;;
71896;SDS011;59767;51.344;12.362;2023-06-22T07:56:33;10.52;;;6.95;;
71896;SDS011;59767;51.344;12.362;2023-06-22T07:59:37;12.43;;;7.03;;
71896;SDS011;59767;51.344;12.362;2023-06-22T08:02:42;12.20;;;7.93;;
71896;SDS011;59767;51.344;12.362;2023-06-22T08:05:49;14.23;;;7.10;;
71896;SDS011;59767;51.344;12.362;2023-06-22T08:08:54;13.23;;;7.70;;
71896;SDS011;59767;51.344;12.362;2023-06-22T08:12:00;12.88;;;6.97;;
71896;SDS011;59767;51.344;12.362;2023-06-22T08:15:05;12.13;;;7.05;;
71896;SDS011;59767;51.344;12.362;2023-06-22T08:18:09;13.20;;;6.75;;
71896;SDS011;59767;51.344;12.362;2023-06-22T08:21:14;14.40;;;6.97;;
71896;SDS011;59767;51.344;12.362;2023-06-22T08:24:18;12.73;;;7.03;;
71896;SDS011;59767;51.344;12.362;2023-06-22T08:27:22;16.38;;;6.63;;
71896;SDS011;59767;51.344;12.362;2023-06-22T08:30:27;14.77;;;6.78;;
71896;SDS011;59767;51.344;12.362;2023-06-22T08:33:31;12.30;;;6.70;;
71896;SDS011;59767;51.344;12.362;2023-06-22T08:36:36;10.57;;;6.75;;
71896;SDS011;59767;51.344;12.362;2023-06-22T08:39:45;12.38;;;6.28;;
71896;SDS011;59767;51.344;12.362;2023-06-22T08:42:49;10.20;;;6.80;;
71896;SDS011;59767;51.344;12.362;2023-06-22T08:45:54;10.95;;;6.75;;
71896;SDS011;59767;51.344;12.362;2023-06-22T08:48:58;11.82;;;6.70;;
71896;SDS011;59767;51.344;12.362;2023-06-22T08:52:03;11.88;;;6.82;;
71896;SDS011;59767;51.344;12.362;2023-06-22T08:55:09;13.13;;;6.75;;
71896;SDS011;59767;51.344;12.362;2023-06-22T08:58:13;11.32;;;6.75;;
71896;SDS011;59767;51.344;12.362;2023-06-22T09:01:17;12.52;;;6.60;;
71896;SDS011;59767;51.344;12.362;2023-06-22T09:04:21;12.00;;;6.78;;
71896;SDS011;59767;51.344;12.362;2023-06-22T09:07:28;12.32;;;6.68;;
71896;SDS011;59767;51.344;12.362;2023-06-22T09:10:33;12.35;;;6.53;;
71896;SDS011;59767;51.344;12.362;2023-06-22T09:13:37;11.25;;;6.40;;
71896;SDS011;59767;51.344;12.362;2023-06-22T09:16:42;14.27;;;6.20;;
71896;SDS011;59767;51.344;12.362;2023-06-22T09:19:46;13.55;;;6.85;;
71896;SDS011;59767;51.344;12.362;2023-06-22T09:22:51;11.25;;;6.43;;
71896;SDS011;59767;51.344;12.362;2023-06-22T09:25:56;11.40;;;6.35;;
71896;SDS011;59767;51.344;12.362;2023-06-22T09:29:00;8.88;;;5.60;;
71896;SDS011;59767;51.344;12.362;2023-06-22T09:32:04;9.23;;;5.43;;
71896;SDS011;59767;51.344;12.362;2023-06-22T09:35:09;10.10;;;5.57;;
71896;SDS011;59767;51.344;12.362;2023-06-22T09:38:19;9.38;;;5.85;;
71896;SDS011;59767;51.344;12.362;2023-06-22T09:41:23;9.65;;;5.07;;
71896;SDS011;59767;51.344;12.362;2023-06-22T09:44:28;11.77;;;5.53;;
71896;SDS011;59767;51.344;12.362;2023-06-22T09:47:32;9.60;;;5.38;;
71896;SDS011;59767;51.344;12.362;2023-06-22T09:50:37;9.20;;;5.57;;
71896;SDS011;59767;51.344;12.362;2023-06-22T09:53:41;11.80;;;5.90;;
71896;SDS011;59767;51.344;12.362;2023-06-22T09:56:46;8.85;;;5.28;;
71896;SDS011;59767;51.344;12.362;2023-06-22T09:59:50;8.65;;;5.55;;
71896;SDS011;59767;51.344;12.362;2023-06-22T10:02:54;11.55;;;5.47;;
71896;SDS011;59767;51.344;12.362;2023-06-22T10:06:03;10.23;;;5.53;;
71896;SDS011;59767;51.344;12.362;2023-06-22T10:09:08;10.48;;;5.65;;
71896;SDS011;59767;51.344;12.362;2023-06-22T10:12:12;9.02;;;5.18;;
71896;SDS011;59767;51.344;12.362;2023-06-22T10:15:16;10.10;;;5.70;;
71896;SDS011;59767;51.344;12.362;2023-06-22T10:18:21;10.68;;;5.88;;
71896;SDS011;59767;51.344;12.362;2023-06-22T10:21:25;9.52;;;5.35;;
71896;SDS011;59767;51.344;12.362;2023-06-22T10:24:31;10.00;;;5.13;;
71896;SDS011;59767;51.344;12.362;2023-06-22T10:27:35;8.48;;;5.22;;
71896;SDS011;59767;51.344;12.362;2023-06-22T10:30:40;6.78;;;4.15;;
71896;SDS011;59767;51.344;12.362;2023-06-22T10:33:48;7.70;;;5.05;;
71896;SDS011;59767;51.344;12.362;2023-06-22T10:36:53;9.30;;;5.10;;
71896;SDS011;59767;51.344;12.362;2023-06-22T10:39:58;9.23;;;5.72;;
71896;SDS011;59767;51.344;12.362;2023-06-22T10:43:02;10.88;;;5.15;;
71896;SDS011;59767;51.344;12.362;2023-06-22T10:46:06;9.13;;;4.93;;
71896;SDS011;59767;51.344;12.362;2023-06-22T10:49:11;9.70;;;5.35;;
71896;SDS011;59767;51.344;12.362;2023-06-22T10:52:15;9.23;;;5.35;;
71896;SDS011;59767;51.344;12.362;2023-06-22T10:55:19;7.60;;;5.18;;
71896;SDS011;59767;51.344;12.362;2023-06-22T10:58:23;8.55;;;5.47;;
71896;SDS011;59767;51.344;12.362;2023-06-22T11:01:27;8.93;;;5.55;;
71896;SDS011;59767;51.344;12.362;2023-06-22T11:04:38;9.98;;;5.32;;
71896;SDS011;59767;51.344;12.362;2023-06-22T11:07:43;10.75;;;5.35;;
71896;SDS011;59767;51.344;12.362;2023-06-22T11:10:52;7.20;;;5.15;;
71896;SDS011;59767;51.344;12.362;2023-06-22T11:13:57;14.95;;;5.82;;
71896;SDS011;59767;51.344;12.362;2023-06-22T11:17:01;8.00;;;5.22;;
71896;SDS011;59767;51.344;12.362;2023-06-22T11:20:05;9.15;;;5.40;;
71896;SDS011;59767;51.344;12.362;2023-06-22T11:23:15;10.60;;;5.20;;
71896;SDS011;59767;51.344;12.362;2023-06-22T11:26:19;10.55;;;5.35;;
71896;SDS011;59767;51.344;12.362;2023-06-22T11:29:25;9.18;;;5.57;;
71896;SDS011;59767;51.344;12.362;2023-06-22T11:32:40;10.77;;;5.70;;
71896;SDS011;59767;51.344;12.362;2023-06-22T11:35:44;7.97;;;5.40;;
71896;SDS011;59767;51.344;12.362;2023-06-22T11:38:48;9.60;;;5.45;;
71896;SDS011;59767;51.344;12.362;2023-06-22T11:41:52;8.48;;;5.50;;
71896;SDS011;59767;51.344;12.362;2023-06-22T11:44:56;13.75;;;6.00;;
71896;SDS011;59767;51.344;12.362;2023-06-22T11:48:02;10.55;;;5.50;;
71896;SDS011;59767;51.344;12.362;2023-06-22T11:51:07;9.77;;;5.90;;
71896;SDS011;59767;51.344;12.362;2023-06-22T11:54:12;10.55;;;5.70;;
71896;SDS011;59767;51.344;12.362;2023-06-22T11:57:15;11.00;;;5.80;;
71896;SDS011;59767;51.344;12.362;2023-06-22T12:00:20;8.50;;;5.53;;
71896;SDS011;59767;51.344;12.362;2023-06-22T12:03:29;10.57;;;5.70;;
71896;SDS011;59767;51.344;12.362;2023-06-22T12:06:35;8.63;;;5.45;;
71896;SDS011;59767;51.344;12.362;2023-06-22T12:09:42;10.88;;;6.60;;
71896;SDS011;59767;51.344;12.362;2023-06-22T12:12:45;10.90;;;5.40;;
71896;SDS011;59767;51.344;12.362;2023-06-22T12:15:49;10.75;;;5.68;;
71896;SDS011;59767;51.344;12.362;2023-06-22T12:18:56;10.93;;;5.15;;
71896;SDS011;59767;51.344;12.362;2023-06-22T12:22:00;11.70;;;5.72;;
71896;SDS011;59767;51.344;12.362;2023-06-22T12:25:05;12.88;;;5.72;;
71896;SDS011;59767;51.344;12.362;2023-06-22T12:28:09;9.80;;;5.63;;
71896;SDS011;59767;51.344;12.362;2023-06-22T12:31:13;11.02;;;5.40;;
71896;SDS011;59767;51.344;12.362;2023-06-22T12:34:18;9.95;;;5.85;;
71896;SDS011;59767;51.344;12.362;2023-06-22T12:37:22;10.43;;;5.65;;
71896;SDS011;59767;51.344;12.362;2023-06-22T12:40:26;12.82;;;5.65;;
71896;SDS011;59767;51.344;12.362;2023-06-22T12:43:30;9.10;;;5.53;;
71896;SDS011;59767;51.344;12.362;2023-06-22T12:46:34;8.80;;;5.30;;
71896;SDS011;59767;51.344;12.362;2023-06-22T12:49:41;9.65;;;5.85;;
71896;SDS011;59767;51.344;12.362;2023-06-22T12:52:45;9.43;;;5.63;;
71896;SDS011;59767;51.344;12.362;2023-06-22T12:55:50;10.85;;;5.43;;
71896;SDS011;59767;51.344;12.362;2023-06-22T12:58:54;10.63;;;5.80;;
71896;SDS011;59767;51.344;12.362;2023-06-22T13:01:58;10.57;;;5.43;;
71896;SDS011;59767;51.344;12.362;2023-06-22T13:05:02;8.77;;;5.88;;
71896;SDS011;59767;51.344;12.362;2023-06-22T13:08:09;11.52;;;5.82;;
71896;SDS011;59767;51.344;12.362;2023-06-22T13:11:16;11.25;;;6.10;;
71896;SDS011;59767;51.344;12.362;2023-06-22T13:14:20;12.98;;;6.10;;
71896;SDS011;59767;51.344;12.362;2023-06-22T13:17:24;8.75;;;5.80;;
71896;SDS011;59767;51.344;12.362;2023-06-22T13:20:29;10.60;;;5.53;;
71896;SDS011;59767;51.344;12.362;2023-06-22T13:23:33;10.68;;;5.78;;
71896;SDS011;59767;51.344;12.362;2023-06-22T13:26:37;11.65;;;5.85;;
71896;SDS011;59767;51.344;12.362;2023-06-22T13:29:42;11.30;;;5.78;;
71896;SDS011;59767;51.344;12.362;2023-06-22T13:32:46;10.73;;;5.72;;
71896;SDS011;59767;51.344;12.362;2023-06-22T13:35:49;12.30;;;5.50;;
71896;SDS011;59767;51.344;12.362;2023-06-22T13:38:54;9.45;;;5.95;;
71896;SDS011;59767;51.344;12.362;2023-06-22T13:41:58;10.68;;;6.32;;
71896;SDS011;59767;51.344;12.362;2023-06-22T13:45:02;13.30;;;6.40;;
71896;SDS011;59767;51.344;12.362;2023-06-22T13:48:07;9.13;;;5.90;;
71896;SDS011;59767;51.344;12.362;2023-06-22T13:51:11;10.52;;;6.03;;
71896;SDS011;59767;51.344;12.362;2023-06-22T13:54:16;9.60;;;5.70;;
71896;SDS011;59767;51.344;12.362;2023-06-22T13:57:33;12.65;;;6.00;;
71896;SDS011;59767;51.344;12.362;2023-06-22T14:00:41;12.13;;;6.03;;
71896;SDS011;59767;51.344;12.362;2023-06-22T14:03:46;11.13;;;5.55;;
71896;SDS011;59767;51.344;12.362;2023-06-22T14:06:51;10.52;;;5.60;;
71896;SDS011;59767;51.344;12.362;2023-06-22T14:10:00;9.80;;;6.40;;
71896;SDS011;59767;51.344;12.362;2023-06-22T14:13:04;12.52;;;6.43;;
71896;SDS011;59767;51.344;12.362;2023-06-22T14:16:09;10.25;;;6.43;;
71896;SDS011;59767;51.344;12.362;2023-06-22T14:19:13;10.10;;;5.70;;
71896;SDS011;59767;51.344;12.362;2023-06-22T14:22:17;12.95;;;6.15;;
71896;SDS011;59767;51.344;12.362;2023-06-22T14:25:21;8.75;;;6.10;;
71896;SDS011;59767;51.344;12.362;2023-06-22T14:28:25;9.18;;;5.80;;
71896;SDS011;59767;51.344;12.362;2023-06-22T14:31:29;10.48;;;5.93;;
71896;SDS011;59767;51.344;12.362;2023-06-22T14:34:33;11.05;;;6.60;;
71896;SDS011;59767;51.344;12.362;2023-06-22T14:37:39;10.73;;;6.03;;
71896;SDS011;59767;51.344;12.362;2023-06-22T14:40:44;14.43;;;6.47;;
71896;SDS011;59767;51.344;12.362;2023-06-22T14:44:08;10.32;;;6.20;;
71896;SDS011;59767;51.344;12.362;2023-06-22T14:47:12;13.20;;;6.20;;
71896;SDS011;59767;51.344;12.362;2023-06-22T14:50:16;11.50;;;6.05;;
71896;SDS011;59767;51.344;12.362;2023-06-22T14:53:20;12.35;;;6.22;;
71896;SDS011;59767;51.344;12.362;2023-06-22T14:56:24;10.88;;;6.40;;
71896;SDS011;59767;51.344;12.362;2023-06-22T14:59:28;10.57;;;5.70;;
71896;SDS011;59767;51.344;12.362;2023-06-22T15:02:31;11.52;;;5.95;;
71896;SDS011;59767;51.344;12.362;2023-06-22T15:05:36;9.93;;;6.50;;
71896;SDS011;59767;51.344;12.362;2023-06-22T15:08:40;10.70;;;6.15;;
71896;SDS011;59767;51.344;12.362;2023-06-22T15:11:45;11.20;;;6.15;;
71896;SDS011;59767;51.344;12.362;2023-06-22T15:14:49;12.43;;;6.10;;
71896;SDS011;59767;51.344;12.362;2023-06-22T15:17:53;9.35;;;6.20;;
71896;SDS011;59767;51.344;12.362;2023-06-22T15:20:57;15.77;;;6.22;;
71896;SDS011;59767;51.344;12.362;2023-06-22T15:24:03;11.45;;;6.03;;
71896;SDS011;59767;51.344;12.362;2023-06-22T15:27:07;13.70;;;6.47;;
71896;SDS011;59767;51.344;12.362;2023-06-22T15:30:11;13.35;;;6.20;;
71896;SDS011;59767;51.344;12.362;2023-06-22T15:33:16;13.45;;;6.10;;
71896;SDS011;59767;51.344;12.362;2023-06-22T15:36:20;9.80;;;5.88;;
71896;SDS011;59767;51.344;12.362;2023-06-22T15:39:24;8.93;;;6.25;;
71896;SDS011;59767;51.344;12.362;2023-06-22T15:42:30;11.70;;;6.10;;
71896;SDS011;59767;51.344;12.362;2023-06-22T15:45:35;11.00;;;6.10;;
71896;SDS011;59767;51.344;12.362;2023-06-22T15:48:39;12.82;;;6.13;;
71896;SDS011;59767;51.344;12.362;2023-06-22T15:51:43;12.93;;;6.63;;
71896;SDS011;59767;51.344;12.362;2023-06-22T15:54:48;13.02;;;6.25;;
71896;SDS011;59767;51.344;12.362;2023-06-22T15:57:55;14.45;;;7.05;;
71896;SDS011;59767;51.344;12.362;2023-06-22T16:00:59;12.50;;;6.60;;
71896;SDS011;59767;51.344;12.362;2023-06-22T16:04:03;13.38;;;7.13;;
71896;SDS011;59767;51.344;12.362;2023-06-22T16:07:08;11.55;;;6.78;;
71896;SDS011;59767;51.344;12.362;2023-06-22T16:10:11;12.20;;;6.03;;
71896;SDS011;59767;51.344;12.362;2023-06-22T16:13:18;9.90;;;6.28;;
71896;SDS011;59767;51.344;12.362;2023-06-22T16:16:22;14.88;;;6.25;;
71896;SDS011;59767;51.344;12.362;2023-06-22T16:19:26;10.88;;;6.65;;
71896;SDS011;59767;51.344;12.362;2023-06-22T16:22:32;12.75;;;7.10;;
71896;SDS011;59767;51.344;12.362;2023-06-22T16:25:38;12.80;;;7.00;;
71896;SDS011;59767;51.344;12.362;2023-06-22T16:28:43;11.88;;;6.55;;
71896;SDS011;59767;51.344;12.362;2023-06-22T16:31:47;11.07;;;6.38;;
71896;SDS011;59767;51.344;12.362;2023-06-22T16:34:51;15.75;;;6.88;;
71896;SDS011;59767;51.344;12.362;2023-06-22T16:37:56;11.85;;;6.65;;
71896;SDS011;59767;51.344;12.362;2023-06-22T16:41:00;11.48;;;6.57;;
71896;SDS011;59767;51.344;12.362;2023-06-22T16:44:04;10.93;;;6.57;;
71896;SDS011;59767;51.344;12.362;2023-06-22T16:47:10;11.80;;;6.32;;
71896;SDS011;59767;51.344;12.362;2023-06-22T16:50:15;12.73;;;6.38;;
71896;SDS011;59767;51.344;12.362;2023-06-22T16:53:19;11.98;;;6.55;;
71896;SDS011;59767;51.344;12.362;2023-06-22T16:56:25;13.57;;;6.20;;
71896;SDS011;59767;51.344;12.362;2023-06-22T16:59:30;10.48;;;6.15;;
71896;SDS011;59767;51.344;12.362;2023-06-22T17:02:35;11.45;;;6.68;;
71896;SDS011;59767;51.344;12.362;2023-06-22T17:05:53;11.93;;;6.30;;
71896;SDS011;59767;51.344;12.362;2023-06-22T17:09:05;15.10;;;5.78;;
71896;SDS011;59767;51.344;12.362;2023-06-22T17:12:10;10.82;;;6.13;;
71896;SDS011;59767;51.344;12.362;2023-06-22T17:15:15;12.48;;;5.97;;
71896;SDS011;59767;51.344;12.362;2023-06-22T17:18:20;11.52;;;5.97;;
71896;SDS011;59767;51.344;12.362;2023-06-22T17:21:28;13.23;;;6.93;;
71896;SDS011;59767;51.344;12.362;2023-06-22T17:24:34;13.48;;;6.45;;
71896;SDS011;59767;51.344;12.362;2023-06-22T17:27:39;11.80;;;6.15;;
71896;SDS011;59767;51.344;12.362;2023-06-22T17:30:44;12.68;;;6.35;;
71896;SDS011;59767;51.344;12.362;2023-06-22T17:33:48;13.27;;;6.80;;
71896;SDS011;59767;51.344;12.362;2023-06-22T17:36:53;12.10;;;6.38;;
71896;SDS011;59767;51.344;12.362;2023-06-22T17:39:58;15.02;;;6.20;;
71896;SDS011;59767;51.344;12.362;2023-06-22T17:43:03;14.38;;;6.18;;
71896;SDS011;59767;51.344;12.362;2023-06-22T17:46:08;11.15;;;6.20;;
71896;SDS011;59767;51.344;12.362;2023-06-22T17:49:13;11.45;;;6.60;;
71896;SDS011;59767;51.344;12.362;2023-06-22T17:52:22;12.65;;;6.88;;
71896;SDS011;59767;51.344;12.362;2023-06-22T17:55:26;10.43;;;6.78;;
71896;SDS011;59767;51.344;12.362;2023-06-22T17:58:29;12.07;;;6.25;;
71896;SDS011;59767;51.344;12.362;2023-06-22T18:01:37;10.40;;;6.70;;
71896;SDS011;59767;51.344;12.362;2023-06-22T18:04:42;11.70;;;6.93;;